Time;durP1;ratioP1;P1;durP2;ratioP2;P2;SDS_P1;SDS_P2;PMS_P1;PMS_P2;Temp;Humidity;BMP_temperature;BMP_pressure;BME280_temperature;BME280_humidity;BME280_pressure;Samples;Min_cycle;Max_cycle;Signal;HPM_P1;HPM_P2
2023/01/29 00:01:48;;;;;;;18.50;2.90;;;3.00;80.80;;;;;;4147409;28;20038;-88
2023/01/29 00:04:09;;;;;;;17.38;3.38;;;2.90;80.70;;;;;;4149847;28;20527;-89
2023/01/29 00:06:10;;;;;;;10.15;2.60;;;3.00;80.80;;;;;;4146570;28;20013;-89
2023/01/29 00:08:11;;;;;;;11.73;2.80;;;2.90;80.70;;;;;;4136443;28;20118;-89
2023/01/29 00:10:31;;;;;;;15.07;2.60;;;2.80;80.70;;;;;;4147616;28;20086;-88
2023/01/29 00:12:52;;;;;;;9.23;2.25;;;2.80;80.80;;;;;;4148485;28;20034;-89
2023/01/29 00:15:13;;;;;;;10.25;2.78;;;2.80;80.90;;;;;;4143269;28;20645;-89
2023/01/29 00:17:34;;;;;;;9.75;2.20;;;2.80;81.00;;;;;;4146363;28;20032;-90
2023/01/29 00:19:54;;;;;;;7.13;2.13;;;2.80;81.10;;;;;;4144309;28;20033;-88
2023/01/29 00:22:15;;;;;;;13.88;3.58;;;2.80;81.10;;;;;;4146006;28;20034;-89
2023/01/29 00:24:36;;;;;;;15.80;4.18;;;2.80;81.20;;;;;;4147706;28;20037;-88
2023/01/29 00:26:56;;;;;;;11.88;3.65;;;2.80;81.30;;;;;;4148668;28;20039;-89
2023/01/29 00:29:17;;;;;;;9.98;3.15;;;2.80;81.30;;;;;;4148930;28;20037;-89
2023/01/29 00:31:22;;;;;;;6.43;2.50;;;2.80;81.20;;;;;;4146666;28;20025;-89
2023/01/29 00:33:23;;;;;;;9.40;2.40;;;2.70;81.20;;;;;;4138580;28;20141;-89
2023/01/29 00:35:31;;;;;;;12.77;2.58;;;2.80;81.30;;;;;;4147203;28;20033;-89
2023/01/29 00:37:51;;;;;;;7.22;2.85;;;2.70;81.20;;;;;;4141262;28;20106;-89
2023/01/29 00:40:12;;;;;;;11.43;3.05;;;2.70;81.20;;;;;;4143935;28;20041;-89
2023/01/29 00:44:58;;;;;;;9.73;2.35;;;2.70;81.20;;;;;;4148468;28;20133;-88
2023/01/29 00:47:32;;;;;;;4.55;1.90;;;2.70;81.30;;;;;;4147024;28;20077;-89
2023/01/29 00:49:52;;;;;;;;;;;2.70;81.20;;;;;;4150879;28;20036;-90
2023/01/29 00:52:25;;;;;;;3.92;1.70;;;2.70;81.60;;;;;;4143381;28;19921;-89
2023/01/29 00:54:46;;;;;;;7.22;2.15;;;2.70;81.00;;;;;;4143846;28;20029;-87
2023/01/29 00:57:06;;;;;;;6.35;1.88;;;2.70;80.90;;;;;;4145893;28;20103;-89
2023/01/29 00:59:27;;;;;;;9.50;2.00;;;2.70;80.90;;;;;;4141392;28;20080;-88
2023/01/29 01:03:47;;;;;;;6.63;2.15;;;2.60;81.00;;;;;;4148314;28;20029;-88
2023/01/29 01:05:48;;;;;;;5.88;2.10;;;2.60;81.10;;;;;;4170646;28;20163;-87
2023/01/29 01:07:54;;;;;;;11.85;2.53;;;2.60;81.30;;;;;;4142935;28;20073;-88
2023/01/29 01:12:34;;;;;;;11.07;2.22;;;2.50;81.30;;;;;;4141955;28;20037;-88
2023/01/29 01:14:55;;;;;;;8.98;2.22;;;2.60;81.40;;;;;;4139405;28;20040;-88
2023/01/29 01:17:16;;;;;;;12.77;1.70;;;2.60;81.40;;;;;;4141457;28;20059;-89
2023/01/29 01:19:37;;;;;;;23.13;1.90;;;2.60;81.50;;;;;;4151018;28;20109;-88
2023/01/29 01:21:57;;;;;;;20.63;1.48;;;2.60;81.70;;;;;;4141516;28;20033;-88
2023/01/29 01:24:19;;;;;;;23.25;1.75;;;2.60;81.60;;;;;;4168758;28;20067;-89
2023/01/29 01:26:39;;;;;;;19.25;1.63;;;2.60;81.60;;;;;;4147528;28;20048;-88
2023/01/29 01:29:00;;;;;;;10.45;1.70;;;2.60;81.70;;;;;;4146667;28;20156;-88
2023/01/29 01:31:12;;;;;;;11.60;1.50;;;2.60;81.60;;;;;;4147675;28;20025;-87
2023/01/29 01:33:13;;;;;;;21.58;2.30;;;2.60;81.80;;;;;;4153437;28;20100;-89
2023/01/29 01:35:13;;;;;;;14.20;1.73;;;2.60;81.80;;;;;;4146486;28;20052;-87
2023/01/29 01:37:30;;;;;;;21.10;1.63;;;2.60;81.90;;;;;;4140539;28;20116;-88
2023/01/29 01:39:56;;;;;;;25.52;2.08;;;2.60;81.90;;;;;;4162389;28;20060;-88
2023/01/29 01:42:17;;;;;;;10.48;1.75;;;2.70;82.00;;;;;;4145037;28;20037;-89
2023/01/29 01:45:00;;;;;;;16.50;2.20;;;2.70;82.00;;;;;;4150632;28;20095;-89
2023/01/29 01:47:30;;;;;;;17.15;2.13;;;2.70;82.20;;;;;;4169643;28;20059;-87
2023/01/29 01:49:52;;;;;;;15.15;1.75;;;2.70;82.10;;;;;;4164566;28;20063;-88
2023/01/29 01:52:15;;;;;;;9.23;2.35;;;2.70;82.90;;;;;;4137901;28;20478;-88
2023/01/29 01:54:36;;;;;;;13.02;2.22;;;2.80;82.40;;;;;;4139596;28;21380;-89
2023/01/29 01:57:14;;;;;;;14.38;2.20;;;2.70;82.30;;;;;;4143463;28;20061;-87
2023/01/29 01:59:37;;;;;;;8.23;2.20;;;2.70;82.30;;;;;;4144344;28;20231;-88
2023/01/29 02:01:41;;;;;;;11.48;2.15;;;2.80;82.40;;;;;;4149591;28;20036;-89
2023/01/29 02:09:34;;;;;;;21.08;2.42;;;2.80;82.30;;;;;;4139342;28;20037;-88
2023/01/29 02:11:55;;;;;;;13.65;2.50;;;2.80;82.40;;;;;;4143287;28;20430;-89
2023/01/29 02:14:15;;;;;;;16.23;2.80;;;2.80;82.40;;;;;;4167503;28;20055;-88
2023/01/29 02:16:36;;;;;;;15.35;2.30;;;3.00;82.70;;;;;;4141982;28;20394;-87
2023/01/29 02:18:57;;;;;;;16.38;2.55;;;2.90;82.70;;;;;;4139607;28;20531;-87
2023/01/29 02:21:43;;;;;;;22.77;2.97;;;2.90;82.80;;;;;;4139047;28;20121;-89
2023/01/29 02:24:22;;;;;;;;;;;2.90;82.90;;;;;;4142780;28;20034;-89
2023/01/29 02:26:25;;;;;;;19.15;2.92;;;3.00;83.90;;;;;;4176801;28;19976;-87
2023/01/29 02:28:42;;;;;;;17.92;2.63;;;3.00;83.10;;;;;;4153764;28;20057;-88
2023/01/29 02:31:08;;;;;;;23.45;2.90;;;3.00;83.00;;;;;;4147825;28;20394;-88
2023/01/29 02:33:48;;;;;;;16.52;2.60;;;3.00;83.10;;;;;;4149547;28;20493;-87
2023/01/29 02:36:38;;;;;;;19.20;2.60;;;3.10;83.20;;;;;;4152069;28;20537;-87
2023/01/29 02:39:07;;;;;;;23.67;3.10;;;3.10;83.20;;;;;;4162241;28;20120;-88
2023/01/29 02:41:36;;;;;;;23.67;3.42;;;3.10;83.10;;;;;;4148510;28;20391;-88
2023/01/29 02:44:06;;;;;;;19.55;3.00;;;3.10;83.10;;;;;;4147976;28;20570;-88
2023/01/29 02:46:53;;;;;;;16.58;2.80;;;3.10;83.40;;;;;;4148497;28;20068;-88
2023/01/29 02:49:45;;;;;;;16.95;2.28;;;3.10;83.30;;;;;;4124650;28;20045;-89
2023/01/29 02:52:15;;;;;;;10.10;2.20;;;3.20;83.30;;;;;;4145263;28;20423;-88
2023/01/29 02:54:51;;;;;;;16.85;2.15;;;3.20;83.10;;;;;;4145819;28;20044;-88
2023/01/29 02:56:58;;;;;;;16.38;1.70;;;3.20;83.00;;;;;;4141998;28;20490;-87
2023/01/29 02:59:06;;;;;;;14.35;2.00;;;3.20;83.00;;;;;;4174779;28;20109;-88
2023/01/29 03:01:34;;;;;;;17.52;2.00;;;3.20;82.90;;;;;;4172852;28;21089;-89
2023/01/29 03:04:02;;;;;;;11.25;1.95;;;3.20;82.90;;;;;;4144889;28;20438;-89
2023/01/29 03:06:30;;;;;;;13.93;1.63;;;3.20;82.80;;;;;;4143952;28;20557;-88
2023/01/29 03:09:10;;;;;;;17.50;1.85;;;3.20;82.80;;;;;;4145930;28;20486;-88
2023/01/29 03:11:38;;;;;;;15.80;1.90;;;3.20;82.70;;;;;;4142141;28;20478;-87
2023/01/29 03:14:05;;;;;;;14.65;1.67;;;3.20;82.70;;;;;;4148458;28;20115;-88
2023/01/29 03:16:46;;;;;;;13.70;1.85;;;3.20;82.60;;;;;;4141676;28;20570;-87
2023/01/29 03:19:09;;;;;;;13.55;2.13;;;3.20;82.70;;;;;;4144568;28;20041;-87
2023/01/29 03:34:33;;;;;;;13.27;1.45;;;3.10;82.50;;;;;;4149993;28;20096;-88
2023/01/29 03:36:57;;;;;;;13.55;1.70;;;3.10;82.50;;;;;;4148750;28;20088;-87
2023/01/29 03:39:18;;;;;;;;;;;3.10;82.50;;;;;;4143252;28;20022;-88
2023/01/29 03:41:26;;;;;;;10.00;1.20;;;3.10;83.00;;;;;;4139476;28;19991;-88
2023/01/29 03:43:44;;;;;;;6.47;1.15;;;3.10;82.40;;;;;;4132633;28;20588;-88
2023/01/29 03:46:07;;;;;;;12.43;1.50;;;3.10;82.50;;;;;;4154287;28;20068;-89
2023/01/29 03:48:18;;;;;;;8.98;1.45;;;3.10;82.50;;;;;;4187450;28;20052;-88
2023/01/29 03:50:45;;;;;;;28.83;1.90;;;3.10;82.40;;;;;;4164632;28;20068;-88
2023/01/29 03:53:29;;;;;;;8.18;1.27;;;3.10;82.50;;;;;;4150471;28;20125;-89
2023/01/29 03:55:40;;;;;;;14.05;1.30;;;3.10;82.50;;;;;;4148602;28;20037;-88
2023/01/29 03:58:28;;;;;;;10.55;1.23;;;3.00;82.30;;;;;;4146637;28;20461;-88
2023/01/29 04:01:05;;;;;;;11.52;1.20;;;3.10;82.60;;;;;;4142147;28;20423;-88
2023/01/29 04:03:37;;;;;;;12.45;1.20;;;3.10;82.60;;;;;;4144498;28;20034;-88
2023/01/29 04:06:08;;;;;;;10.88;1.20;;;3.00;82.50;;;;;;4143151;28;20038;-88
2023/01/29 04:08:32;;;;;;;12.32;1.25;;;3.10;82.70;;;;;;4153104;28;20033;-89
2023/01/29 04:10:58;;;;;;;7.88;1.38;;;3.00;82.80;;;;;;4146090;28;20025;-87
2023/01/29 04:13:19;;;;;;;9.73;1.00;;;3.10;82.80;;;;;;4147093;28;20064;-89
2023/01/29 04:15:48;;;;;;;11.35;1.30;;;3.10;82.80;;;;;;4142448;28;20037;-87
2023/01/29 04:18:09;;;;;;;9.07;1.05;;;3.10;82.90;;;;;;4146985;28;20029;-89
2023/01/29 04:20:30;;;;;;;7.43;0.90;;;3.20;83.00;;;;;;4145033;28;20057;-89
2023/01/29 04:22:51;;;;;;;10.75;1.02;;;3.10;82.90;;;;;;4145618;28;20030;-89
2023/01/29 04:25:25;;;;;;;11.63;0.95;;;3.10;82.90;;;;;;4150763;28;20910;-87
2023/01/29 04:27:58;;;;;;;7.22;1.02;;;3.20;83.00;;;;;;4149679;28;20050;-88
2023/01/29 04:30:52;;;;;;;13.05;1.17;;;3.10;82.90;;;;;;4165684;28;20147;-89
2023/01/29 04:33:40;;;;;;;4.60;0.60;;;3.20;82.90;;;;;;4143570;28;20094;-88
2023/01/29 04:36:38;;;;;;;8.18;0.77;;;3.20;83.00;;;;;;4150104;28;20035;-86
2023/01/29 04:39:24;;;;;;;11.13;0.82;;;3.20;83.00;;;;;;4158211;28;20083;-86
2023/01/29 04:41:35;;;;;;;8.48;0.90;;;3.20;83.10;;;;;;4110303;28;20030;-89
2023/01/29 04:44:15;;;;;;;6.30;0.95;;;3.20;83.30;;;;;;4144341;28;20052;-89
2023/01/29 04:46:46;;;;;;;10.00;1.05;;;3.30;83.30;;;;;;4174106;28;20047;-89
2023/01/29 04:49:26;;;;;;;12.05;1.15;;;3.30;83.30;;;;;;4165592;28;20370;-87
2023/01/29 04:52:02;;;;;;;4.97;1.02;;;3.30;83.40;;;;;;4171063;28;20025;-89
2023/01/29 04:55:00;;;;;;;5.75;1.00;;;3.30;83.50;;;;;;4167347;28;20033;-89
2023/01/29 04:57:35;;;;;;;6.35;0.70;;;3.40;83.60;;;;;;4146993;28;20029;-87
2023/01/29 05:00:04;;;;;;;7.70;0.82;;;3.40;83.60;;;;;;4148667;28;20112;-89
2023/01/29 05:02:27;;;;;;;6.70;0.93;;;3.40;83.50;;;;;;4146713;28;20120;-88
2023/01/29 05:04:49;;;;;;;10.55;0.93;;;3.50;83.60;;;;;;4175584;28;20048;-87
2023/01/29 05:07:13;;;;;;;6.22;0.95;;;3.40;83.50;;;;;;4150973;28;20124;-89
2023/01/29 05:09:36;;;;;;;6.38;0.98;;;3.50;83.50;;;;;;4163336;28;20045;-88
2023/01/29 05:11:57;;;;;;;6.68;1.17;;;3.50;83.50;;;;;;4152903;28;20045;-89
2023/01/29 05:14:19;;;;;;;7.82;1.02;;;3.50;83.50;;;;;;4146030;28;20059;-88
2023/01/29 05:16:48;;;;;;;4.90;0.70;;;3.50;83.50;;;;;;4146759;28;20045;-88
2023/01/29 05:19:11;;;;;;;5.28;0.65;;;3.50;84.30;;;;;;4156657;28;20064;-88
2023/01/29 05:21:32;;;;;;;8.55;0.90;;;3.50;83.60;;;;;;4149245;28;20116;-88
2023/01/29 05:24:09;;;;;;;3.67;0.68;;;3.60;83.70;;;;;;4147754;28;20120;-88
2023/01/29 05:28:49;;;;;;;10.00;1.30;;;3.60;83.70;;;;;;4149889;28;20045;-88
2023/01/29 05:30:53;;;;;;;5.18;0.77;;;3.60;83.80;;;;;;4178870;28;20052;-88
2023/01/29 05:32:54;;;;;;;6.75;1.10;;;3.70;83.80;;;;;;4131888;28;20120;-88
2023/01/29 05:34:54;;;;;;;4.07;0.57;;;3.70;83.80;;;;;;4163548;28;20091;-88
2023/01/29 05:36:55;;;;;;;7.72;0.70;;;3.90;83.90;;;;;;4146324;28;20064;-88
2023/01/29 05:38:57;;;;;;;3.95;0.80;;;3.70;83.90;;;;;;4144340;28;20059;-88
2023/01/29 05:41:18;;;;;;;4.28;0.68;;;3.70;83.80;;;;;;4139437;28;20049;-89
2023/01/29 05:43:23;;;;;;;6.00;0.90;;;3.70;83.70;;;;;;4164226;28;20025;-89
2023/01/29 05:45:53;;;;;;;3.95;0.60;;;3.80;83.90;;;;;;4141053;28;20037;-88
2023/01/29 05:47:57;;;;;;;2.30;0.55;;;3.80;83.80;;;;;;4143626;28;20037;-88
2023/01/29 05:50:18;;;;;;;7.68;0.75;;;3.80;83.80;;;;;;4144306;28;20030;-89
2023/01/29 05:52:39;;;;;;;5.25;0.82;;;3.80;83.70;;;;;;4143299;28;20040;-89
2023/01/29 05:55:00;;;;;;;4.55;0.70;;;3.80;83.70;;;;;;4143928;28;20044;-88
2023/01/29 05:57:21;;;;;;;7.97;0.68;;;3.80;83.70;;;;;;4142727;28;20034;-88
2023/01/29 05:59:41;;;;;;;3.83;0.75;;;3.90;83.70;;;;;;4141220;28;20057;-89
2023/01/29 06:02:02;;;;;;;7.88;0.90;;;3.90;83.70;;;;;;4145252;28;20068;-88
2023/01/29 06:04:23;;;;;;;2.38;0.40;;;3.90;83.70;;;;;;4145361;28;20033;-89
2023/01/29 06:06:24;;;;;;;2.97;0.60;;;3.90;83.60;;;;;;4144553;28;20040;-89
2023/01/29 06:08:24;;;;;;;2.47;0.32;;;3.90;83.60;;;;;;4143115;28;20410;-89
2023/01/29 06:10:25;;;;;;;1.38;0.22;;;4.00;83.70;;;;;;4132006;28;20487;-89
2023/01/29 06:12:26;;;;;;;3.25;0.50;;;4.00;83.80;;;;;;4152039;28;20104;-88
2023/01/29 06:14:47;;;;;;;5.38;0.55;;;4.00;83.80;;;;;;4141329;28;20033;-89
2023/01/29 06:17:07;;;;;;;2.03;0.50;;;4.00;83.90;;;;;;4149023;28;20030;-90
2023/01/29 06:19:28;;;;;;;2.38;0.50;;;4.10;83.80;;;;;;4145771;28;20041;-87
2023/01/29 06:21:49;;;;;;;1.35;0.47;;;4.00;83.80;;;;;;4159465;28;20040;-88
2023/01/29 06:24:09;;;;;;;3.65;0.68;;;4.10;83.80;;;;;;4147824;28;20033;-88
2023/01/29 06:26:30;;;;;;;1.08;0.60;;;4.10;83.90;;;;;;4147204;28;20029;-89
2023/01/29 06:28:50;;;;;;;4.78;0.68;;;4.10;83.90;;;;;;4147725;28;20025;-89
2023/01/29 06:31:11;;;;;;;2.90;0.70;;;4.10;83.80;;;;;;4151780;28;20039;-87
2023/01/29 06:33:32;;;;;;;1.20;0.70;;;4.10;83.90;;;;;;4160331;28;20076;-87
2023/01/29 06:35:57;;;;;;;4.55;0.80;;;4.10;84.00;;;;;;4147076;28;20057;-89
2023/01/29 06:38:17;;;;;;;5.20;1.30;;;4.10;84.70;;;;;;4145501;28;20029;-87
2023/01/29 06:40:38;;;;;;;2.67;0.95;;;4.20;84.00;;;;;;4144530;28;20040;-89
2023/01/29 06:42:38;;;;;;;3.65;1.02;;;4.20;84.70;;;;;;4157202;28;20481;-88
2023/01/29 06:44:39;;;;;;;9.00;1.63;;;4.20;84.00;;;;;;4144522;28;20029;-89
2023/01/29 06:46:40;;;;;;;2.95;0.93;;;4.20;84.10;;;;;;4132040;28;20030;-91
2023/01/29 06:49:01;;;;;;;3.00;0.80;;;4.30;84.20;;;;;;4140284;28;20147;-88
2023/01/29 06:51:22;;;;;;;2.38;0.70;;;4.20;84.20;;;;;;4145063;28;20041;-87
2023/01/29 06:53:43;;;;;;;5.60;1.13;;;4.30;84.20;;;;;;4149533;28;20413;-87
2023/01/29 06:56:04;;;;;;;4.70;1.10;;;4.30;84.20;;;;;;4146533;28;20049;-87
2023/01/29 06:58:25;;;;;;;6.65;1.45;;;4.30;84.20;;;;;;4157962;28;20128;-88
2023/01/29 07:00:46;;;;;;;5.90;1.20;;;4.30;84.20;;;;;;4144441;28;20085;-87
2023/01/29 07:03:09;;;;;;;5.55;1.15;;;4.40;84.40;;;;;;4157203;28;20033;-86
2023/01/29 07:05:30;;;;;;;10.07;1.80;;;4.40;84.30;;;;;;4148836;28;20041;-86
2023/01/29 07:07:51;;;;;;;3.40;1.00;;;4.40;84.30;;;;;;4147340;28;20041;-86
2023/01/29 07:09:51;;;;;;;3.65;0.93;;;4.40;84.20;;;;;;4127739;28;20038;-86
2023/01/29 07:11:52;;;;;;;8.57;1.10;;;4.40;84.30;;;;;;4142615;28;20040;-88
2023/01/29 07:14:13;;;;;;;6.25;0.90;;;4.50;84.40;;;;;;4147054;28;20048;-89
2023/01/29 07:16:34;;;;;;;2.08;0.90;;;4.50;84.40;;;;;;4148672;28;20103;-87
2023/01/29 07:18:54;;;;;;;13.52;1.30;;;4.50;84.30;;;;;;4168657;28;20045;-88
2023/01/29 07:21:15;;;;;;;11.05;1.20;;;4.50;84.30;;;;;;4156490;28;20022;-88
2023/01/29 07:23:35;;;;;;;5.93;0.90;;;4.50;84.30;;;;;;4157117;28;20037;-88
2023/01/29 07:26:00;;;;;;;11.27;1.55;;;4.70;84.40;;;;;;4156636;28;20038;-86
2023/01/29 07:28:21;;;;;;;10.13;0.85;;;4.60;84.30;;;;;;4156125;28;20250;-88
2023/01/29 07:30:42;;;;;;;5.90;0.85;;;4.60;84.30;;;;;;4148014;28;20144;-88
2023/01/29 07:33:07;;;;;;;7.55;0.85;;;4.60;84.20;;;;;;4154402;28;20096;-88
2023/01/29 07:35:27;;;;;;;3.17;0.77;;;4.60;84.20;;;;;;4144010;28;20073;-87
2023/01/29 07:37:49;;;;;;;4.85;1.02;;;4.60;84.20;;;;;;4141244;28;20033;-89
2023/01/29 07:39:50;;;;;;;3.92;0.77;;;4.70;84.20;;;;;;4145980;28;20046;-87
2023/01/29 07:42:10;;;;;;;3.63;1.08;;;4.70;85.00;;;;;;4142180;28;20029;-85
2023/01/29 07:44:31;;;;;;;6.68;0.70;;;4.70;84.20;;;;;;4147204;28;20501;-89
2023/01/29 07:46:51;;;;;;;3.63;0.95;;;4.70;84.10;;;;;;4143685;28;20103;-91
2023/01/29 07:49:12;;;;;;;9.23;0.88;;;4.70;84.20;;;;;;4170543;28;20089;-89
2023/01/29 07:51:33;;;;;;;5.82;1.10;;;4.70;84.20;;;;;;4151779;28;20057;-88
2023/01/29 07:53:54;;;;;;;9.05;1.35;;;4.70;84.30;;;;;;4177579;28;20080;-88
2023/01/29 07:56:14;;;;;;;4.15;0.80;;;4.70;84.20;;;;;;4166724;28;20038;-85
2023/01/29 07:58:35;;;;;;;6.18;0.88;;;4.80;84.20;;;;;;4143105;28;20377;-88
2023/01/29 08:00:37;;;;;;;4.82;1.13;;;4.80;84.20;;;;;;4134513;28;20068;-87
2023/01/29 08:03:05;;;;;;;9.18;1.30;;;4.80;84.30;;;;;;4149728;28;20037;-88
2023/01/29 08:05:26;;;;;;;9.25;1.27;;;4.80;84.20;;;;;;4147502;28;20041;-88
2023/01/29 08:07:52;;;;;;;3.53;1.27;;;4.90;84.20;;;;;;4171206;28;20040;-85
2023/01/29 08:10:13;;;;;;;8.98;1.13;;;4.80;84.10;;;;;;4146485;28;20041;-88
2023/01/29 08:12:34;;;;;;;6.82;1.45;;;4.80;84.10;;;;;;4148546;28;20049;-87
2023/01/29 08:14:54;;;;;;;3.72;1.05;;;4.80;84.00;;;;;;4148730;28;20030;-88
2023/01/29 08:17:15;;;;;;;8.32;1.33;;;4.80;83.90;;;;;;4177813;28;20037;-87
2023/01/29 08:19:17;;;;;;;7.95;1.50;;;4.80;84.00;;;;;;4185768;28;20107;-89
2023/01/29 08:21:37;;;;;;;6.30;1.10;;;4.80;84.00;;;;;;4153707;28;21185;-86
2023/01/29 08:23:58;;;;;;;7.15;1.17;;;4.90;84.10;;;;;;4156227;28;20025;-88
2023/01/29 08:26:19;;;;;;;4.25;1.23;;;4.90;84.10;;;;;;4154550;28;20183;-89
2023/01/29 08:28:40;;;;;;;6.60;1.23;;;4.90;84.20;;;;;;4156641;28;20378;-88
2023/01/29 08:31:01;;;;;;;5.55;1.05;;;4.90;84.10;;;;;;4151964;28;20953;-88
2023/01/29 08:33:22;;;;;;;8.38;1.25;;;5.10;84.30;;;;;;4158914;28;20033;-87
2023/01/29 08:35:42;;;;;;;4.65;1.00;;;5.00;84.20;;;;;;4148816;28;20476;-89
2023/01/29 08:37:59;;;;;;;8.45;0.80;;;5.00;84.20;;;;;;4157008;28;20090;-87
2023/01/29 08:40:00;;;;;;;10.30;1.50;;;5.00;84.10;;;;;;4183244;28;20500;-88
2023/01/29 08:42:20;;;;;;;8.70;0.93;;;5.00;84.20;;;;;;4150370;28;20036;-86
2023/01/29 08:44:41;;;;;;;8.73;1.10;;;5.00;84.20;;;;;;4149764;28;20449;-88
2023/01/29 08:46:42;;;;;;;3.50;0.65;;;5.00;84.10;;;;;;4143636;28;20033;-89
2023/01/29 08:48:42;;;;;;;5.43;0.85;;;5.10;84.20;;;;;;4138407;28;20044;-90
2023/01/29 08:51:03;;;;;;;10.13;1.10;;;5.10;84.20;;;;;;4148378;28;20092;-88
2023/01/29 08:53:25;;;;;;;8.23;1.00;;;5.10;84.20;;;;;;4141445;28;20639;-89
2023/01/29 08:55:34;;;;;;;5.95;0.85;;;5.10;84.10;;;;;;4144778;28;20113;-88
2023/01/29 08:57:35;;;;;;;5.47;0.80;;;5.10;84.10;;;;;;4145946;28;20095;-88
2023/01/29 08:59:55;;;;;;;12.93;1.58;;;5.20;84.10;;;;;;4141960;28;20896;-89
2023/01/29 09:02:16;;;;;;;6.05;0.88;;;5.10;84.00;;;;;;4146756;28;20018;-87
2023/01/29 09:04:37;;;;;;;6.10;0.93;;;5.20;84.00;;;;;;4144608;28;22081;-87
2023/01/29 09:06:57;;;;;;;10.02;0.95;;;5.20;84.00;;;;;;4147624;28;20026;-88
2023/01/29 09:08:58;;;;;;;7.50;1.10;;;5.20;84.00;;;;;;4145148;28;20494;-87
2023/01/29 09:11:19;;;;;;;7.90;1.10;;;5.20;84.00;;;;;;4147869;28;20030;-87
2023/01/29 09:13:40;;;;;;;9.32;0.70;;;5.20;83.90;;;;;;4155519;28;21865;-89
2023/01/29 09:16:02;;;;;;;2.95;0.73;;;5.20;83.90;;;;;;4149046;28;20521;-88
2023/01/29 09:18:18;;;;;;;9.20;1.00;;;5.30;83.90;;;;;;4165344;28;20030;-87
2023/01/29 09:20:38;;;;;;;4.13;0.80;;;5.30;84.00;;;;;;4145245;28;20629;-87
2023/01/29 09:23:03;;;;;;;5.65;1.05;;;5.30;83.90;;;;;;4143649;28;20571;-88
2023/01/29 09:25:24;;;;;;;4.13;0.90;;;5.30;83.90;;;;;;4148430;28;20490;-87
2023/01/29 09:27:45;;;;;;;6.10;0.80;;;5.30;83.90;;;;;;4151159;28;20076;-87
2023/01/29 09:30:06;;;;;;;5.65;0.55;;;5.30;83.80;;;;;;4145135;28;20037;-87
2023/01/29 09:32:29;;;;;;;5.30;0.70;;;5.30;83.70;;;;;;4140224;28;20571;-88
2023/01/29 09:34:50;;;;;;;10.88;0.85;;;5.30;83.60;;;;;;4143071;28;20147;-87
2023/01/29 09:37:12;;;;;;;6.13;0.80;;;5.30;83.60;;;;;;4150964;28;20093;-89
2023/01/29 09:39:32;;;;;;;4.10;0.70;;;5.40;83.50;;;;;;4144573;28;20021;-87
2023/01/29 09:42:16;;;;;;;9.15;1.08;;;5.40;83.50;;;;;;4151479;28;20030;-87
2023/01/29 09:44:38;;;;;;;4.88;0.90;;;5.40;83.50;;;;;;4154140;28;20233;-88
2023/01/29 09:46:46;;;;;;;2.78;0.80;;;5.40;83.30;;;;;;4158439;28;20126;-89
2023/01/29 09:48:54;;;;;;;5.97;0.88;;;5.40;83.30;;;;;;4154089;28;20036;-87
2023/01/29 09:50:59;;;;;;;7.30;1.25;;;5.50;83.40;;;;;;4154399;28;20064;-87
2023/01/29 09:53:21;;;;;;;5.07;0.80;;;5.40;83.20;;;;;;4152314;28;20088;-91
2023/01/29 09:55:38;;;;;;;5.18;0.88;;;5.40;83.20;;;;;;4162340;28;20025;-87
2023/01/29 09:57:48;;;;;;;8.15;1.30;;;5.40;83.20;;;;;;4184168;28;20021;-89
2023/01/29 09:59:58;;;;;;;10.15;1.00;;;5.40;83.00;;;;;;4150483;28;20022;-89
2023/01/29 10:02:14;;;;;;;1.30;0.50;;;5.30;83.10;;;;;;4168399;28;20702;-88
2023/01/29 10:04:59;;;;;;;6.43;0.98;;;5.40;83.00;;;;;;4151001;28;20025;-89
2023/01/29 10:08:01;;;;;;;4.10;1.02;;;5.40;83.00;;;;;;4147994;28;20169;-88
2023/01/29 10:10:28;;;;;;;6.90;1.20;;;5.40;82.90;;;;;;4131064;28;20026;-89
2023/01/29 10:12:59;;;;;;;5.63;1.30;;;5.40;82.80;;;;;;4149088;28;20037;-88
2023/01/29 10:15:55;;;;;;;5.00;1.08;;;5.40;82.60;;;;;;4147332;28;20101;-88
2023/01/29 10:18:39;;;;;;;6.13;1.25;;;5.40;82.70;;;;;;4126392;28;20059;-88
2023/01/29 10:21:26;;;;;;;9.27;0.98;;;5.40;82.50;;;;;;4146555;28;20032;-87
2023/01/29 10:24:01;;;;;;;4.97;0.88;;;5.40;82.50;;;;;;4145807;28;20033;-88
2023/01/29 10:26:25;;;;;;;5.47;1.17;;;5.40;82.40;;;;;;4146162;28;20036;-87
2023/01/29 10:28:49;;;;;;;9.77;1.33;;;5.40;82.40;;;;;;4141916;28;20044;-88
2023/01/29 10:31:16;;;;;;;6.22;0.98;;;5.50;82.40;;;;;;4141845;28;20087;-88
2023/01/29 10:33:25;;;;;;;4.57;0.90;;;5.40;82.30;;;;;;4154241;28;20014;-88
2023/01/29 10:35:38;;;;;;;10.50;1.00;;;5.50;82.40;;;;;;4130320;28;20421;-88
2023/01/29 10:38:13;;;;;;;10.13;1.30;;;5.50;82.50;;;;;;4151938;28;20061;-88
2023/01/29 10:40:45;;;;;;;6.25;1.10;;;5.50;82.40;;;;;;4165125;28;20041;-87
2023/01/29 10:43:18;;;;;;;11.93;1.10;;;5.50;82.30;;;;;;4150716;28;20030;-89
2023/01/29 10:45:46;;;;;;;10.90;1.25;;;5.50;82.20;;;;;;4163233;28;21302;-88
2023/01/29 10:48:38;;;;;;;15.48;1.33;;;5.60;81.70;;;;;;4140236;28;20071;-90
2023/01/29 10:51:33;;;;;;;6.97;1.30;;;5.60;81.40;;;;;;4166473;28;20063;-91
2023/01/29 10:53:36;;;;;;;10.10;1.10;;;5.60;81.60;;;;;;4171568;28;20033;-89
2023/01/29 10:55:42;;;;;;;4.53;0.85;;;5.60;81.50;;;;;;4168196;28;20072;-89
2023/01/29 10:58:40;;;;;;;9.93;1.40;;;5.80;81.60;;;;;;4147719;28;20034;-89
2023/01/29 11:01:01;;;;;;;11.48;1.13;;;5.70;81.60;;;;;;4137845;28;20026;-91
2023/01/29 11:03:21;;;;;;;9.25;1.15;;;5.80;81.50;;;;;;4137030;28;20034;-89
2023/01/29 11:06:17;;;;;;;6.28;0.90;;;5.80;81.40;;;;;;4142710;28;20044;-90
2023/01/29 11:08:28;;;;;;;9.10;0.90;;;5.80;81.20;;;;;;4141109;28;20126;-89
2023/01/29 11:10:32;;;;;;;8.43;1.33;;;5.80;81.00;;;;;;4171389;28;20053;-89
2023/01/29 11:12:53;;;;;;;6.95;1.10;;;5.80;80.90;;;;;;4145275;28;20078;-87
2023/01/29 11:15:33;;;;;;;7.10;0.80;;;5.80;80.60;;;;;;4140284;28;20037;-90
2023/01/29 11:18:05;;;;;;;10.00;0.77;;;5.80;80.60;;;;;;4134227;28;20080;-90
2023/01/29 11:20:27;;;;;;;6.10;0.90;;;5.80;80.00;;;;;;4141663;28;20034;-89
2023/01/29 11:22:54;;;;;;;6.00;0.80;;;5.80;80.10;;;;;;4138658;28;20080;-90
2023/01/29 11:25:19;;;;;;;7.70;0.90;;;5.80;79.90;;;;;;4139700;28;20033;-91
2023/01/29 11:27:25;;;;;;;8.18;1.02;;;5.80;79.70;;;;;;4125893;28;20049;-89
2023/01/29 11:29:50;;;;;;;8.90;1.00;;;6.00;80.60;;;;;;4189424;28;20017;-90
2023/01/29 11:32:22;;;;;;;8.43;1.20;;;5.90;79.70;;;;;;4148287;28;20037;-91
2023/01/29 11:35:01;;;;;;;6.93;1.00;;;5.90;79.70;;;;;;4159249;28;20036;-90
2023/01/29 11:37:22;;;;;;;6.50;0.95;;;5.90;79.60;;;;;;4137244;28;20176;-89
2023/01/29 11:39:46;;;;;;;5.13;1.30;;;6.10;79.60;;;;;;4139697;28;20426;-90
2023/01/29 11:42:21;;;;;;;6.82;1.00;;;5.90;79.50;;;;;;4138820;28;20168;-91
2023/01/29 11:44:42;;;;;;;9.88;1.30;;;6.00;79.30;;;;;;4139225;28;20037;-90
2023/01/29 11:47:15;;;;;;;8.35;1.30;;;6.00;79.30;;;;;;4134576;28;20033;-89
2023/01/29 11:49:36;;;;;;;8.20;1.15;;;6.00;79.20;;;;;;4138527;28;20165;-89
2023/01/29 11:51:40;;;;;;;3.10;0.80;;;6.00;78.70;;;;;;4140144;28;20034;-89
2023/01/29 11:53:48;;;;;;;5.95;1.00;;;6.20;78.90;;;;;;4156154;28;20130;-90
2023/01/29 11:55:50;;;;;;;7.72;1.08;;;6.10;78.70;;;;;;4138452;28;20030;-89
2023/01/29 11:58:03;;;;;;;5.78;0.82;;;6.10;78.30;;;;;;4139220;28;20022;-89
2023/01/29 12:00:20;;;;;;;;;;;6.10;78.20;;;;;;4141335;28;20404;-88
2023/01/29 12:02:41;;;;;;;10.00;1.00;;;6.10;77.90;;;;;;4160834;28;20001;-88
2023/01/29 12:05:16;;;;;;;11.20;1.25;;;6.10;77.10;;;;;;4160931;28;20191;-90
2023/01/29 12:07:22;;;;;;;9.65;1.20;;;6.10;76.90;;;;;;4155344;28;20025;-88
2023/01/29 12:10:02;;;;;;;9.15;1.10;;;6.10;76.60;;;;;;4135932;28;20034;-88
2023/01/29 12:12:23;;;;;;;13.40;1.20;;;6.00;76.60;;;;;;4146916;28;20663;-90
2023/01/29 12:14:43;;;;;;;10.95;1.23;;;6.10;76.60;;;;;;4132867;28;20045;-88
2023/01/29 12:17:25;;;;;;;11.38;1.05;;;6.00;76.60;;;;;;4139597;28;20040;-90
2023/01/29 12:19:57;;;;;;;6.35;1.15;;;6.00;76.90;;;;;;4125380;28;20149;-88
2023/01/29 12:22:23;;;;;;;7.20;1.02;;;5.90;76.90;;;;;;4133798;28;20628;-88
2023/01/29 12:24:59;;;;;;;11.88;1.33;;;5.90;76.80;;;;;;4134467;28;20040;-88
2023/01/29 12:27:23;;;;;;;2.67;0.82;;;5.90;77.00;;;;;;4132533;28;20179;-88
2023/01/29 12:29:58;;;;;;;2.08;0.70;;;5.90;77.10;;;;;;4128469;28;20029;-90
2023/01/29 12:32:36;;;;;;;9.70;1.30;;;5.90;77.40;;;;;;4132399;28;20100;-89
2023/01/29 12:35:08;;;;;;;8.13;1.10;;;5.90;77.40;;;;;;4125665;28;20033;-89
2023/01/29 12:38:01;;;;;;;5.80;0.98;;;5.90;77.50;;;;;;4136389;28;20033;-89
2023/01/29 12:40:25;;;;;;;6.03;1.40;;;5.90;77.50;;;;;;4134293;28;20033;-90
2023/01/29 12:42:54;;;;;;;9.05;0.98;;;5.90;77.50;;;;;;4133971;28;20125;-89
2023/01/29 12:45:21;;;;;;;7.57;0.95;;;5.90;77.60;;;;;;4160998;28;20057;-90
2023/01/29 12:47:47;;;;;;;7.00;1.15;;;5.90;77.50;;;;;;4136062;28;20041;-90
2023/01/29 12:50:33;;;;;;;4.47;0.90;;;5.90;76.90;;;;;;4136735;28;20033;-90
2023/01/29 12:53:17;;;;;;;9.35;1.25;;;5.90;77.40;;;;;;4136085;28;20033;-88
2023/01/29 12:55:48;;;;;;;7.05;1.38;;;5.90;78.00;;;;;;4141392;28;20055;-90
2023/01/29 12:58:22;;;;;;;10.93;1.30;;;5.90;77.20;;;;;;4143776;28;20030;-88